sensor_id;sensor_type;location;lat;lon;timestamp;P1;durP1;ratioP1;P2;durP2;ratioP2
5696;SDS011;2873;50.966;7.210;2023-04-26T00:01:54;5.22;;;2.10;;
5696;SDS011;2873;50.966;7.210;2023-04-26T00:04:21;2.40;;;2.10;;
5696;SDS011;2873;50.966;7.210;2023-04-26T00:06:47;5.75;;;2.00;;
5696;SDS011;2873;50.966;7.210;2023-04-26T00:09:13;5.90;;;2.17;;
5696;SDS011;2873;50.966;7.210;2023-04-26T00:11:39;5.03;;;2.80;;
5696;SDS011;2873;50.966;7.210;2023-04-26T00:14:04;5.40;;;2.58;;
5696;SDS011;2873;50.966;7.210;2023-04-26T00:16:30;5.33;;;2.73;;
5696;SDS011;2873;50.966;7.210;2023-04-26T00:18:55;5.50;;;2.30;;
5696;SDS011;2873;50.966;7.210;2023-04-26T00:21:21;3.40;;;2.20;;
5696;SDS011;2873;50.966;7.210;2023-04-26T00:23:47;4.63;;;2.20;;
5696;SDS011;2873;50.966;7.210;2023-04-26T00:26:12;6.60;;;2.63;;
5696;SDS011;2873;50.966;7.210;2023-04-26T00:28:38;5.53;;;2.30;;
5696;SDS011;2873;50.966;7.210;2023-04-26T00:31:03;4.17;;;2.40;;
5696;SDS011;2873;50.966;7.210;2023-04-26T00:33:29;9.88;;;2.38;;
5696;SDS011;2873;50.966;7.210;2023-04-26T00:35:55;3.20;;;2.70;;
5696;SDS011;2873;50.966;7.210;2023-04-26T00:38:20;2.30;;;2.10;;
5696;SDS011;2873;50.966;7.210;2023-04-26T00:40:46;3.93;;;2.40;;
5696;SDS011;2873;50.966;7.210;2023-04-26T00:43:11;6.10;;;2.30;;
5696;SDS011;2873;50.966;7.210;2023-04-26T00:45:37;6.90;;;2.97;;
5696;SDS011;2873;50.966;7.210;2023-04-26T00:48:03;4.28;;;2.30;;
5696;SDS011;2873;50.966;7.210;2023-04-26T00:50:29;7.50;;;2.90;;
5696;SDS011;2873;50.966;7.210;2023-04-26T00:52:56;5.28;;;2.83;;
5696;SDS011;2873;50.966;7.210;2023-04-26T00:55:22;6.25;;;2.70;;
5696;SDS011;2873;50.966;7.210;2023-04-26T00:57:50;4.80;;;2.53;;
5696;SDS011;2873;50.966;7.210;2023-04-26T01:00:16;11.07;;;2.40;;
5696;SDS011;2873;50.966;7.210;2023-04-26T01:02:42;5.10;;;2.53;;
5696;SDS011;2873;50.966;7.210;2023-04-26T01:05:08;6.10;;;2.30;;
5696;SDS011;2873;50.966;7.210;2023-04-26T01:07:35;7.03;;;2.20;;
5696;SDS011;2873;50.966;7.210;2023-04-26T01:10:02;3.93;;;2.53;;
5696;SDS011;2873;50.966;7.210;2023-04-26T01:12:29;3.67;;;2.57;;
5696;SDS011;2873;50.966;7.210;2023-04-26T01:14:56;5.75;;;2.53;;
5696;SDS011;2873;50.966;7.210;2023-04-26T01:17:23;6.40;;;2.80;;
5696;SDS011;2873;50.966;7.210;2023-04-26T01:19:49;3.60;;;2.70;;
5696;SDS011;2873;50.966;7.210;2023-04-26T01:22:16;4.70;;;2.50;;
5696;SDS011;2873;50.966;7.210;2023-04-26T01:24:42;3.93;;;2.33;;
5696;SDS011;2873;50.966;7.210;2023-04-26T01:27:10;7.57;;;3.03;;
5696;SDS011;2873;50.966;7.210;2023-04-26T01:29:36;6.20;;;3.30;;
5696;SDS011;2873;50.966;7.210;2023-04-26T01:32:01;10.20;;;3.47;;
5696;SDS011;2873;50.966;7.210;2023-04-26T01:34:27;6.95;;;2.90;;
5696;SDS011;2873;50.966;7.210;2023-04-26T01:36:53;9.73;;;2.63;;
5696;SDS011;2873;50.966;7.210;2023-04-26T01:39:18;3.17;;;2.20;;
5696;SDS011;2873;50.966;7.210;2023-04-26T01:41:44;9.60;;;2.70;;
5696;SDS011;2873;50.966;7.210;2023-04-26T01:44:09;4.85;;;2.53;;
5696;SDS011;2873;50.966;7.210;2023-04-26T01:46:35;4.70;;;2.00;;
5696;SDS011;2873;50.966;7.210;2023-04-26T01:49:01;5.20;;;2.00;;
5696;SDS011;2873;50.966;7.210;2023-04-26T01:51:26;4.10;;;2.30;;
5696;SDS011;2873;50.966;7.210;2023-04-26T01:53:52;7.40;;;2.73;;
5696;SDS011;2873;50.966;7.210;2023-04-26T01:56:18;5.40;;;2.35;;
5696;SDS011;2873;50.966;7.210;2023-04-26T01:58:44;5.95;;;2.58;;
5696;SDS011;2873;50.966;7.210;2023-04-26T02:01:10;5.13;;;2.72;;
5696;SDS011;2873;50.966;7.210;2023-04-26T02:03:36;4.40;;;2.23;;
5696;SDS011;2873;50.966;7.210;2023-04-26T02:06:02;5.10;;;2.33;;
5696;SDS011;2873;50.966;7.210;2023-04-26T02:08:27;2.80;;;2.20;;
5696;SDS011;2873;50.966;7.210;2023-04-26T02:10:53;6.70;;;3.00;;
5696;SDS011;2873;50.966;7.210;2023-04-26T02:13:19;4.53;;;2.53;;
5696;SDS011;2873;50.966;7.210;2023-04-26T02:15:45;5.90;;;2.53;;
5696;SDS011;2873;50.966;7.210;2023-04-26T02:18:11;5.28;;;2.60;;
5696;SDS011;2873;50.966;7.210;2023-04-26T02:20:39;10.80;;;2.77;;
5696;SDS011;2873;50.966;7.210;2023-04-26T02:23:07;8.55;;;3.13;;
5696;SDS011;2873;50.966;7.210;2023-04-26T02:25:33;6.57;;;3.08;;
5696;SDS011;2873;50.966;7.210;2023-04-26T02:27:58;6.53;;;3.17;;
5696;SDS011;2873;50.966;7.210;2023-04-26T02:30:24;9.63;;;4.37;;
5696;SDS011;2873;50.966;7.210;2023-04-26T02:32:51;16.42;;;6.78;;
5696;SDS011;2873;50.966;7.210;2023-04-26T02:35:18;20.35;;;7.00;;
5696;SDS011;2873;50.966;7.210;2023-04-26T02:37:43;12.48;;;5.75;;
5696;SDS011;2873;50.966;7.210;2023-04-26T02:40:12;11.00;;;4.40;;
5696;SDS011;2873;50.966;7.210;2023-04-26T02:42:39;9.35;;;4.10;;
5696;SDS011;2873;50.966;7.210;2023-04-26T02:45:04;6.57;;;4.50;;
5696;SDS011;2873;50.966;7.210;2023-04-26T02:47:31;6.03;;;4.20;;
5696;SDS011;2873;50.966;7.210;2023-04-26T02:49:56;9.43;;;4.20;;
5696;SDS011;2873;50.966;7.210;2023-04-26T02:52:22;9.57;;;4.47;;
5696;SDS011;2873;50.966;7.210;2023-04-26T02:54:48;7.35;;;3.80;;
5696;SDS011;2873;50.966;7.210;2023-04-26T02:57:13;5.10;;;3.30;;
5696;SDS011;2873;50.966;7.210;2023-04-26T02:59:39;7.22;;;3.20;;
5696;SDS011;2873;50.966;7.210;2023-04-26T03:02:04;8.93;;;2.90;;
5696;SDS011;2873;50.966;7.210;2023-04-26T03:04:31;3.40;;;2.80;;
5696;SDS011;2873;50.966;7.210;2023-04-26T03:06:58;7.60;;;3.28;;
5696;SDS011;2873;50.966;7.210;2023-04-26T03:09:23;3.80;;;2.97;;
5696;SDS011;2873;50.966;7.210;2023-04-26T03:11:50;6.80;;;3.80;;
5696;SDS011;2873;50.966;7.210;2023-04-26T03:14:16;8.35;;;3.80;;
5696;SDS011;2873;50.966;7.210;2023-04-26T03:16:42;8.27;;;4.37;;
5696;SDS011;2873;50.966;7.210;2023-04-26T03:19:08;6.43;;;3.75;;
5696;SDS011;2873;50.966;7.210;2023-04-26T03:21:34;8.00;;;3.87;;
5696;SDS011;2873;50.966;7.210;2023-04-26T03:24:00;10.87;;;5.07;;
5696;SDS011;2873;50.966;7.210;2023-04-26T03:26:25;11.83;;;4.83;;
5696;SDS011;2873;50.966;7.210;2023-04-26T03:28:51;5.75;;;3.80;;
5696;SDS011;2873;50.966;7.210;2023-04-26T03:31:16;8.07;;;4.23;;
5696;SDS011;2873;50.966;7.210;2023-04-26T03:33:43;7.00;;;3.50;;
5696;SDS011;2873;50.966;7.210;2023-04-26T03:36:08;4.10;;;3.40;;
5696;SDS011;2873;50.966;7.210;2023-04-26T03:38:34;5.40;;;3.70;;
5696;SDS011;2873;50.966;7.210;2023-04-26T03:41:00;5.13;;;3.40;;
5696;SDS011;2873;50.966;7.210;2023-04-26T03:43:25;6.80;;;3.22;;
5696;SDS011;2873;50.966;7.210;2023-04-26T03:45:51;8.40;;;3.50;;
5696;SDS011;2873;50.966;7.210;2023-04-26T03:48:16;8.20;;;3.80;;
5696;SDS011;2873;50.966;7.210;2023-04-26T03:50:42;9.43;;;4.07;;
5696;SDS011;2873;50.966;7.210;2023-04-26T03:53:09;6.82;;;3.67;;
5696;SDS011;2873;50.966;7.210;2023-04-26T03:55:35;11.60;;;4.20;;
5696;SDS011;2873;50.966;7.210;2023-04-26T03:58:01;6.87;;;3.47;;
5696;SDS011;2873;50.966;7.210;2023-04-26T04:00:28;8.33;;;3.60;;
5696;SDS011;2873;50.966;7.210;2023-04-26T04:02:54;9.25;;;3.90;;
5696;SDS011;2873;50.966;7.210;2023-04-26T04:05:20;5.60;;;3.03;;
5696;SDS011;2873;50.966;7.210;2023-04-26T04:07:45;6.33;;;3.20;;
5696;SDS011;2873;50.966;7.210;2023-04-26T04:10:11;7.65;;;3.53;;
5696;SDS011;2873;50.966;7.210;2023-04-26T04:12:36;8.47;;;3.30;;
5696;SDS011;2873;50.966;7.210;2023-04-26T04:15:02;4.45;;;3.20;;
5696;SDS011;2873;50.966;7.210;2023-04-26T04:17:28;4.85;;;3.35;;
5696;SDS011;2873;50.966;7.210;2023-04-26T04:19:53;24.27;;;11.40;;
5696;SDS011;2873;50.966;7.210;2023-04-26T04:22:19;40.85;;;17.15;;
5696;SDS011;2873;50.966;7.210;2023-04-26T04:24:44;19.13;;;9.40;;
5696;SDS011;2873;50.966;7.210;2023-04-26T04:27:11;15.43;;;8.55;;
5696;SDS011;2873;50.966;7.210;2023-04-26T04:29:36;17.60;;;8.70;;
5696;SDS011;2873;50.966;7.210;2023-04-26T04:32:02;18.07;;;9.27;;
5696;SDS011;2873;50.966;7.210;2023-04-26T04:34:32;15.85;;;7.75;;
5696;SDS011;2873;50.966;7.210;2023-04-26T04:36:59;12.73;;;6.10;;
5696;SDS011;2873;50.966;7.210;2023-04-26T04:39:26;9.55;;;5.50;;
5696;SDS011;2873;50.966;7.210;2023-04-26T04:41:51;7.10;;;4.83;;
5696;SDS011;2873;50.966;7.210;2023-04-26T04:44:18;6.88;;;4.93;;
5696;SDS011;2873;50.966;7.210;2023-04-26T04:46:44;6.90;;;4.10;;
5696;SDS011;2873;50.966;7.210;2023-04-26T04:49:10;9.10;;;3.80;;
5696;SDS011;2873;50.966;7.210;2023-04-26T04:51:39;11.40;;;3.78;;
5696;SDS011;2873;50.966;7.210;2023-04-26T04:54:14;8.40;;;3.90;;
5696;SDS011;2873;50.966;7.210;2023-04-26T04:56:42;7.50;;;4.50;;
5696;SDS011;2873;50.966;7.210;2023-04-26T04:59:08;10.77;;;4.07;;
5696;SDS011;2873;50.966;7.210;2023-04-26T05:01:34;7.70;;;3.20;;
5696;SDS011;2873;50.966;7.210;2023-04-26T05:04:01;4.95;;;2.90;;
5696;SDS011;2873;50.966;7.210;2023-04-26T05:06:27;4.70;;;2.95;;
5696;SDS011;2873;50.966;7.210;2023-04-26T05:08:53;6.90;;;3.38;;
5696;SDS011;2873;50.966;7.210;2023-04-26T05:11:20;7.32;;;3.80;;
5696;SDS011;2873;50.966;7.210;2023-04-26T05:13:45;6.80;;;3.10;;
5696;SDS011;2873;50.966;7.210;2023-04-26T05:16:12;6.97;;;3.13;;
5696;SDS011;2873;50.966;7.210;2023-04-26T05:18:37;8.57;;;2.80;;
5696;SDS011;2873;50.966;7.210;2023-04-26T05:21:03;9.80;;;3.33;;
5696;SDS011;2873;50.966;7.210;2023-04-26T05:23:28;5.25;;;3.10;;
5696;SDS011;2873;50.966;7.210;2023-04-26T05:25:55;6.22;;;3.30;;
5696;SDS011;2873;50.966;7.210;2023-04-26T05:28:21;5.60;;;3.33;;
5696;SDS011;2873;50.966;7.210;2023-04-26T05:30:46;6.93;;;3.40;;
5696;SDS011;2873;50.966;7.210;2023-04-26T05:33:13;3.70;;;3.17;;
5696;SDS011;2873;50.966;7.210;2023-04-26T05:35:39;6.87;;;3.87;;
5696;SDS011;2873;50.966;7.210;2023-04-26T05:38:05;8.45;;;3.00;;
5696;SDS011;2873;50.966;7.210;2023-04-26T05:40:30;5.17;;;3.30;;
5696;SDS011;2873;50.966;7.210;2023-04-26T05:42:56;8.98;;;3.40;;
5696;SDS011;2873;50.966;7.210;2023-04-26T05:45:21;9.68;;;3.55;;
5696;SDS011;2873;50.966;7.210;2023-04-26T05:47:47;5.97;;;3.50;;
5696;SDS011;2873;50.966;7.210;2023-04-26T05:50:13;8.13;;;3.70;;
5696;SDS011;2873;50.966;7.210;2023-04-26T05:52:38;7.50;;;3.70;;
5696;SDS011;2873;50.966;7.210;2023-04-26T05:55:05;305.90;;;87.65;;
5696;SDS011;2873;50.966;7.210;2023-04-26T05:57:31;299.90;;;88.32;;
5696;SDS011;2873;50.966;7.210;2023-04-26T05:59:56;178.27;;;51.90;;
5696;SDS011;2873;50.966;7.210;2023-04-26T06:02:22;212.27;;;60.13;;
5696;SDS011;2873;50.966;7.210;2023-04-26T06:04:47;152.07;;;44.70;;
5696;SDS011;2873;50.966;7.210;2023-04-26T06:07:13;54.00;;;19.02;;
5696;SDS011;2873;50.966;7.210;2023-04-26T06:09:41;15.15;;;6.90;;
5696;SDS011;2873;50.966;7.210;2023-04-26T06:12:07;16.55;;;6.95;;
5696;SDS011;2873;50.966;7.210;2023-04-26T06:14:32;11.60;;;5.07;;
5696;SDS011;2873;50.966;7.210;2023-04-26T06:16:58;12.55;;;4.40;;
5696;SDS011;2873;50.966;7.210;2023-04-26T06:19:24;5.40;;;3.80;;
5696;SDS011;2873;50.966;7.210;2023-04-26T06:21:49;16.02;;;7.43;;
5696;SDS011;2873;50.966;7.210;2023-04-26T06:24:18;26.63;;;6.10;;
5696;SDS011;2873;50.966;7.210;2023-04-26T06:26:44;14.60;;;6.00;;
5696;SDS011;2873;50.966;7.210;2023-04-26T06:29:10;9.27;;;5.23;;
5696;SDS011;2873;50.966;7.210;2023-04-26T06:31:35;12.40;;;5.55;;
5696;SDS011;2873;50.966;7.210;2023-04-26T06:34:01;10.50;;;4.70;;
5696;SDS011;2873;50.966;7.210;2023-04-26T06:36:27;12.75;;;5.72;;
5696;SDS011;2873;50.966;7.210;2023-04-26T06:38:53;14.98;;;7.32;;
5696;SDS011;2873;50.966;7.210;2023-04-26T06:41:18;13.90;;;7.37;;
5696;SDS011;2873;50.966;7.210;2023-04-26T06:43:46;21.23;;;10.13;;
5696;SDS011;2873;50.966;7.210;2023-04-26T06:46:11;24.77;;;9.53;;
5696;SDS011;2873;50.966;7.210;2023-04-26T06:48:37;14.68;;;7.20;;
5696;SDS011;2873;50.966;7.210;2023-04-26T06:51:06;14.50;;;6.67;;
5696;SDS011;2873;50.966;7.210;2023-04-26T06:53:32;20.05;;;7.25;;
5696;SDS011;2873;50.966;7.210;2023-04-26T06:56:01;10.95;;;6.50;;
5696;SDS011;2873;50.966;7.210;2023-04-26T06:58:27;19.43;;;6.70;;
5696;SDS011;2873;50.966;7.210;2023-04-26T07:00:53;13.50;;;7.00;;
5696;SDS011;2873;50.966;7.210;2023-04-26T07:03:18;15.48;;;7.45;;
5696;SDS011;2873;50.966;7.210;2023-04-26T07:05:44;13.33;;;7.33;;
5696;SDS011;2873;50.966;7.210;2023-04-26T07:08:10;15.30;;;7.70;;
5696;SDS011;2873;50.966;7.210;2023-04-26T07:10:36;13.15;;;7.05;;
5696;SDS011;2873;50.966;7.210;2023-04-26T07:13:03;14.40;;;7.35;;
5696;SDS011;2873;50.966;7.210;2023-04-26T07:15:28;10.73;;;7.60;;
5696;SDS011;2873;50.966;7.210;2023-04-26T07:17:55;14.10;;;7.05;;
5696;SDS011;2873;50.966;7.210;2023-04-26T07:20:20;14.40;;;6.80;;
5696;SDS011;2873;50.966;7.210;2023-04-26T07:22:47;15.15;;;8.48;;
5696;SDS011;2873;50.966;7.210;2023-04-26T07:25:12;14.88;;;7.40;;
5696;SDS011;2873;50.966;7.210;2023-04-26T07:27:38;17.55;;;8.40;;
5696;SDS011;2873;50.966;7.210;2023-04-26T07:30:04;19.60;;;8.23;;
5696;SDS011;2873;50.966;7.210;2023-04-26T07:32:30;13.32;;;7.03;;
5696;SDS011;2873;50.966;7.210;2023-04-26T07:34:55;16.63;;;7.32;;
5696;SDS011;2873;50.966;7.210;2023-04-26T07:37:21;14.83;;;7.40;;
5696;SDS011;2873;50.966;7.210;2023-04-26T07:39:47;14.80;;;6.70;;
5696;SDS011;2873;50.966;7.210;2023-04-26T07:42:13;13.43;;;6.65;;
5696;SDS011;2873;50.966;7.210;2023-04-26T07:44:39;8.70;;;5.38;;
5696;SDS011;2873;50.966;7.210;2023-04-26T07:47:04;17.20;;;5.73;;
5696;SDS011;2873;50.966;7.210;2023-04-26T07:49:35;13.35;;;5.68;;
5696;SDS011;2873;50.966;7.210;2023-04-26T07:52:01;17.60;;;6.17;;
5696;SDS011;2873;50.966;7.210;2023-04-26T07:54:26;10.27;;;5.30;;
5696;SDS011;2873;50.966;7.210;2023-04-26T07:56:52;12.40;;;4.90;;
5696;SDS011;2873;50.966;7.210;2023-04-26T07:59:18;11.93;;;5.50;;
5696;SDS011;2873;50.966;7.210;2023-04-26T08:01:44;8.88;;;4.60;;
5696;SDS011;2873;50.966;7.210;2023-04-26T08:04:09;13.30;;;4.23;;
5696;SDS011;2873;50.966;7.210;2023-04-26T08:06:35;11.23;;;4.28;;
5696;SDS011;2873;50.966;7.210;2023-04-26T08:09:01;8.65;;;3.20;;
5696;SDS011;2873;50.966;7.210;2023-04-26T08:11:28;10.68;;;3.80;;
5696;SDS011;2873;50.966;7.210;2023-04-26T08:13:54;9.50;;;3.92;;
5696;SDS011;2873;50.966;7.210;2023-04-26T08:16:20;9.57;;;3.50;;
5696;SDS011;2873;50.966;7.210;2023-04-26T08:18:45;8.07;;;3.40;;
5696;SDS011;2873;50.966;7.210;2023-04-26T08:21:11;8.50;;;4.07;;
5696;SDS011;2873;50.966;7.210;2023-04-26T08:23:37;10.93;;;4.37;;
5696;SDS011;2873;50.966;7.210;2023-04-26T08:26:03;9.38;;;4.25;;
5696;SDS011;2873;50.966;7.210;2023-04-26T08:28:28;6.80;;;4.30;;
5696;SDS011;2873;50.966;7.210;2023-04-26T08:30:54;8.57;;;4.75;;
5696;SDS011;2873;50.966;7.210;2023-04-26T08:33:20;8.10;;;5.10;;
5696;SDS011;2873;50.966;7.210;2023-04-26T08:35:45;7.90;;;4.60;;
5696;SDS011;2873;50.966;7.210;2023-04-26T08:38:11;11.07;;;4.40;;
5696;SDS011;2873;50.966;7.210;2023-04-26T08:40:37;7.18;;;4.00;;
5696;SDS011;2873;50.966;7.210;2023-04-26T08:43:02;7.38;;;4.10;;
5696;SDS011;2873;50.966;7.210;2023-04-26T08:45:28;10.40;;;3.97;;
5696;SDS011;2873;50.966;7.210;2023-04-26T08:47:57;10.95;;;4.60;;
5696;SDS011;2873;50.966;7.210;2023-04-26T08:50:27;12.10;;;3.70;;
5696;SDS011;2873;50.966;7.210;2023-04-26T08:52:55;8.10;;;4.30;;
5696;SDS011;2873;50.966;7.210;2023-04-26T08:55:20;11.40;;;4.87;;
5696;SDS011;2873;50.966;7.210;2023-04-26T08:57:48;11.85;;;4.72;;
5696;SDS011;2873;50.966;7.210;2023-04-26T09:00:15;14.13;;;5.18;;
5696;SDS011;2873;50.966;7.210;2023-04-26T09:02:43;10.73;;;4.50;;
5696;SDS011;2873;50.966;7.210;2023-04-26T09:05:11;7.50;;;5.13;;
5696;SDS011;2873;50.966;7.210;2023-04-26T09:07:41;12.32;;;5.07;;
5696;SDS011;2873;50.966;7.210;2023-04-26T09:10:09;14.23;;;5.38;;
5696;SDS011;2873;50.966;7.210;2023-04-26T09:12:35;11.90;;;4.60;;
5696;SDS011;2873;50.966;7.210;2023-04-26T09:15:01;9.87;;;4.73;;
5696;SDS011;2873;50.966;7.210;2023-04-26T09:19:56;8.93;;;4.10;;
5696;SDS011;2873;50.966;7.210;2023-04-26T09:23:03;9.10;;;5.10;;
5696;SDS011;2873;50.966;7.210;2023-04-26T09:25:16;9.20;;;4.90;;
5696;SDS011;2873;50.966;7.210;2023-04-26T09:27:43;9.45;;;5.32;;
5696;SDS011;2873;50.966;7.210;2023-04-26T09:32:43;11.43;;;5.03;;
5696;SDS011;2873;50.966;7.210;2023-04-26T09:37:55;8.30;;;5.65;;
5696;SDS011;2873;50.966;7.210;2023-04-26T09:40:27;6.05;;;5.03;;
5696;SDS011;2873;50.966;7.210;2023-04-26T09:42:57;9.40;;;5.97;;
5696;SDS011;2873;50.966;7.210;2023-04-26T09:45:25;14.13;;;6.75;;
5696;SDS011;2873;50.966;7.210;2023-04-26T09:47:51;11.85;;;5.85;;
5696;SDS011;2873;50.966;7.210;2023-04-26T09:50:27;7.10;;;5.10;;
5696;SDS011;2873;50.966;7.210;2023-04-26T09:52:54;8.90;;;5.00;;
5696;SDS011;2873;50.966;7.210;2023-04-26T09:55:27;7.90;;;5.00;;
5696;SDS011;2873;50.966;7.210;2023-04-26T09:57:54;7.60;;;4.50;;
5696;SDS011;2873;50.966;7.210;2023-04-26T10:00:24;6.10;;;4.55;;
5696;SDS011;2873;50.966;7.210;2023-04-26T10:02:52;5.75;;;3.25;;
5696;SDS011;2873;50.966;7.210;2023-04-26T10:05:19;6.40;;;3.20;;
5696;SDS011;2873;50.966;7.210;2023-04-26T10:07:45;4.53;;;3.30;;
5696;SDS011;2873;50.966;7.210;2023-04-26T10:10:12;10.82;;;4.43;;
5696;SDS011;2873;50.966;7.210;2023-04-26T10:12:39;8.10;;;4.57;;
5696;SDS011;2873;50.966;7.210;2023-04-26T10:15:09;12.10;;;5.57;;
5696;SDS011;2873;50.966;7.210;2023-04-26T10:17:38;9.45;;;5.18;;
5696;SDS011;2873;50.966;7.210;2023-04-26T10:20:05;13.00;;;5.35;;
5696;SDS011;2873;50.966;7.210;2023-04-26T10:22:39;10.18;;;5.10;;
5696;SDS011;2873;50.966;7.210;2023-04-26T10:25:10;10.73;;;6.28;;
5696;SDS011;2873;50.966;7.210;2023-04-26T10:30:08;12.48;;;6.00;;
5696;SDS011;2873;50.966;7.210;2023-04-26T10:35:32;11.60;;;5.05;;
5696;SDS011;2873;50.966;7.210;2023-04-26T10:40:31;10.05;;;5.53;;
5696;SDS011;2873;50.966;7.210;2023-04-26T10:45:46;11.07;;;6.10;;
5696;SDS011;2873;50.966;7.210;2023-04-26T10:48:17;12.25;;;5.97;;
5696;SDS011;2873;50.966;7.210;2023-04-26T10:51:09;9.48;;;5.65;;
5696;SDS011;2873;50.966;7.210;2023-04-26T10:59:11;11.05;;;5.80;;
5696;SDS011;2873;50.966;7.210;2023-04-26T11:01:38;6.38;;;5.10;;
5696;SDS011;2873;50.966;7.210;2023-04-26T11:04:08;6.32;;;4.20;;
5696;SDS011;2873;50.966;7.210;2023-04-26T11:06:47;6.15;;;4.53;;
5696;SDS011;2873;50.966;7.210;2023-04-26T11:12:13;7.53;;;4.00;;
5696;SDS011;2873;50.966;7.210;2023-04-26T11:14:40;9.15;;;5.28;;
5696;SDS011;2873;50.966;7.210;2023-04-26T11:17:10;11.90;;;6.90;;
5696;SDS011;2873;50.966;7.210;2023-04-26T11:19:36;10.38;;;6.10;;
5696;SDS011;2873;50.966;7.210;2023-04-26T11:22:02;12.18;;;6.45;;
5696;SDS011;2873;50.966;7.210;2023-04-26T11:24:31;10.77;;;6.00;;
5696;SDS011;2873;50.966;7.210;2023-04-26T11:26:57;9.80;;;6.10;;
5696;SDS011;2873;50.966;7.210;2023-04-26T11:29:23;9.27;;;5.25;;
5696;SDS011;2873;50.966;7.210;2023-04-26T11:31:53;9.50;;;6.07;;
5696;SDS011;2873;50.966;7.210;2023-04-26T11:34:21;6.65;;;4.68;;
5696;SDS011;2873;50.966;7.210;2023-04-26T11:36:49;9.05;;;5.50;;
5696;SDS011;2873;50.966;7.210;2023-04-26T11:39:15;11.75;;;5.50;;
5696;SDS011;2873;50.966;7.210;2023-04-26T11:41:43;11.73;;;5.53;;
5696;SDS011;2873;50.966;7.210;2023-04-26T11:44:09;10.47;;;5.20;;
5696;SDS011;2873;50.966;7.210;2023-04-26T11:46:36;7.45;;;4.80;;
5696;SDS011;2873;50.966;7.210;2023-04-26T11:49:02;12.50;;;5.57;;
5696;SDS011;2873;50.966;7.210;2023-04-26T11:51:28;10.50;;;4.50;;
5696;SDS011;2873;50.966;7.210;2023-04-26T11:53:54;7.43;;;4.40;;
5696;SDS011;2873;50.966;7.210;2023-04-26T11:56:19;10.33;;;4.40;;
5696;SDS011;2873;50.966;7.210;2023-04-26T11:58:50;7.57;;;4.20;;
5696;SDS011;2873;50.966;7.210;2023-04-26T12:01:26;10.93;;;4.40;;
5696;SDS011;2873;50.966;7.210;2023-04-26T12:03:53;9.07;;;4.50;;
5696;SDS011;2873;50.966;7.210;2023-04-26T12:09:25;11.13;;;4.78;;
5696;SDS011;2873;50.966;7.210;2023-04-26T12:14:33;6.43;;;4.47;;
5696;SDS011;2873;50.966;7.210;2023-04-26T12:17:00;9.60;;;4.93;;
5696;SDS011;2873;50.966;7.210;2023-04-26T12:19:27;9.90;;;4.80;;
5696;SDS011;2873;50.966;7.210;2023-04-26T12:21:52;5.93;;;4.50;;
5696;SDS011;2873;50.966;7.210;2023-04-26T12:24:20;7.47;;;4.45;;
5696;SDS011;2873;50.966;7.210;2023-04-26T12:26:50;10.90;;;4.90;;
5696;SDS011;2873;50.966;7.210;2023-04-26T12:29:16;8.93;;;4.40;;
5696;SDS011;2873;50.966;7.210;2023-04-26T12:31:42;6.10;;;4.50;;
5696;SDS011;2873;50.966;7.210;2023-04-26T12:34:08;5.23;;;4.00;;
5696;SDS011;2873;50.966;7.210;2023-04-26T12:36:33;7.95;;;4.30;;
5696;SDS011;2873;50.966;7.210;2023-04-26T12:38:59;8.80;;;4.70;;
5696;SDS011;2873;50.966;7.210;2023-04-26T12:41:27;5.43;;;4.93;;
5696;SDS011;2873;50.966;7.210;2023-04-26T12:43:53;5.38;;;4.45;;
5696;SDS011;2873;50.966;7.210;2023-04-26T12:46:18;6.87;;;4.43;;
5696;SDS011;2873;50.966;7.210;2023-04-26T12:48:45;5.90;;;4.17;;
5696;SDS011;2873;50.966;7.210;2023-04-26T12:51:10;5.65;;;4.45;;
5696;SDS011;2873;50.966;7.210;2023-04-26T12:53:36;9.20;;;4.80;;
5696;SDS011;2873;50.966;7.210;2023-04-26T12:56:01;9.83;;;5.20;;
5696;SDS011;2873;50.966;7.210;2023-04-26T12:58:27;9.10;;;4.50;;
5696;SDS011;2873;50.966;7.210;2023-04-26T13:00:53;9.13;;;4.60;;
5696;SDS011;2873;50.966;7.210;2023-04-26T13:03:18;9.38;;;4.90;;
5696;SDS011;2873;50.966;7.210;2023-04-26T13:05:44;6.33;;;4.30;;
5696;SDS011;2873;50.966;7.210;2023-04-26T13:08:10;11.55;;;4.90;;
5696;SDS011;2873;50.966;7.210;2023-04-26T13:10:35;7.47;;;4.27;;
5696;SDS011;2873;50.966;7.210;2023-04-26T13:13:01;6.07;;;4.18;;
5696;SDS011;2873;50.966;7.210;2023-04-26T13:15:27;8.90;;;4.90;;
5696;SDS011;2873;50.966;7.210;2023-04-26T13:17:53;9.88;;;4.70;;
5696;SDS011;2873;50.966;7.210;2023-04-26T13:20:19;8.25;;;4.55;;
5696;SDS011;2873;50.966;7.210;2023-04-26T13:22:45;9.83;;;5.40;;
5696;SDS011;2873;50.966;7.210;2023-04-26T13:25:10;9.18;;;4.75;;
5696;SDS011;2873;50.966;7.210;2023-04-26T13:27:37;6.18;;;4.55;;
5696;SDS011;2873;50.966;7.210;2023-04-26T13:30:03;9.55;;;4.63;;
5696;SDS011;2873;50.966;7.210;2023-04-26T13:32:29;8.63;;;4.70;;
5696;SDS011;2873;50.966;7.210;2023-04-26T13:34:54;8.45;;;5.10;;
5696;SDS011;2873;50.966;7.210;2023-04-26T13:37:20;8.75;;;4.50;;
5696;SDS011;2873;50.966;7.210;2023-04-26T13:39:46;9.33;;;4.70;;
5696;SDS011;2873;50.966;7.210;2023-04-26T13:42:13;7.35;;;5.20;;
5696;SDS011;2873;50.966;7.210;2023-04-26T13:44:40;8.00;;;4.70;;
5696;SDS011;2873;50.966;7.210;2023-04-26T13:47:05;9.38;;;4.70;;
5696;SDS011;2873;50.966;7.210;2023-04-26T13:49:31;5.00;;;4.50;;
5696;SDS011;2873;50.966;7.210;2023-04-26T13:51:57;8.02;;;5.00;;
5696;SDS011;2873;50.966;7.210;2023-04-26T13:54:22;15.38;;;6.15;;
5696;SDS011;2873;50.966;7.210;2023-04-26T13:56:50;8.60;;;4.90;;
5696;SDS011;2873;50.966;7.210;2023-04-26T13:59:16;7.97;;;4.80;;
5696;SDS011;2873;50.966;7.210;2023-04-26T14:01:42;5.53;;;4.53;;
5696;SDS011;2873;50.966;7.210;2023-04-26T14:04:08;11.15;;;4.68;;
5696;SDS011;2873;50.966;7.210;2023-04-26T14:06:33;8.30;;;5.38;;
5696;SDS011;2873;50.966;7.210;2023-04-26T14:09:00;7.93;;;5.30;;
5696;SDS011;2873;50.966;7.210;2023-04-26T14:11:26;8.75;;;4.68;;
5696;SDS011;2873;50.966;7.210;2023-04-26T14:13:52;11.27;;;5.25;;
5696;SDS011;2873;50.966;7.210;2023-04-26T14:16:23;7.60;;;4.88;;
5696;SDS011;2873;50.966;7.210;2023-04-26T14:18:49;5.85;;;4.22;;
5696;SDS011;2873;50.966;7.210;2023-04-26T14:21:15;8.68;;;5.03;;
5696;SDS011;2873;50.966;7.210;2023-04-26T14:23:41;5.13;;;4.63;;
5696;SDS011;2873;50.966;7.210;2023-04-26T14:26:07;11.88;;;5.40;;
5696;SDS011;2873;50.966;7.210;2023-04-26T14:28:33;7.75;;;4.88;;
5696;SDS011;2873;50.966;7.210;2023-04-26T14:31:00;10.00;;;4.80;;
5696;SDS011;2873;50.966;7.210;2023-04-26T14:33:26;10.30;;;5.50;;
5696;SDS011;2873;50.966;7.210;2023-04-26T14:35:51;11.00;;;4.72;;
5696;SDS011;2873;50.966;7.210;2023-04-26T14:38:17;9.50;;;5.33;;
5696;SDS011;2873;50.966;7.210;2023-04-26T14:40:43;8.43;;;5.35;;
5696;SDS011;2873;50.966;7.210;2023-04-26T14:43:09;9.88;;;5.00;;
5696;SDS011;2873;50.966;7.210;2023-04-26T14:45:35;11.27;;;6.10;;
5696;SDS011;2873;50.966;7.210;2023-04-26T14:48:00;10.00;;;5.50;;
5696;SDS011;2873;50.966;7.210;2023-04-26T14:50:27;8.75;;;5.00;;
5696;SDS011;2873;50.966;7.210;2023-04-26T14:52:53;8.38;;;5.22;;
5696;SDS011;2873;50.966;7.210;2023-04-26T14:55:19;12.70;;;5.55;;
5696;SDS011;2873;50.966;7.210;2023-04-26T14:57:48;10.00;;;5.03;;
5696;SDS011;2873;50.966;7.210;2023-04-26T15:00:14;5.22;;;4.05;;
5696;SDS011;2873;50.966;7.210;2023-04-26T15:02:41;7.10;;;4.43;;
5696;SDS011;2873;50.966;7.210;2023-04-26T15:05:07;7.63;;;4.63;;
5696;SDS011;2873;50.966;7.210;2023-04-26T15:07:34;7.13;;;4.20;;
5696;SDS011;2873;50.966;7.210;2023-04-26T15:10:00;12.90;;;4.95;;
5696;SDS011;2873;50.966;7.210;2023-04-26T15:12:26;10.00;;;4.90;;
5696;SDS011;2873;50.966;7.210;2023-04-26T15:14:52;9.80;;;6.07;;
5696;SDS011;2873;50.966;7.210;2023-04-26T15:17:17;6.10;;;4.25;;
5696;SDS011;2873;50.966;7.210;2023-04-26T15:19:43;9.80;;;5.30;;
5696;SDS011;2873;50.966;7.210;2023-04-26T15:22:08;9.20;;;5.10;;
5696;SDS011;2873;50.966;7.210;2023-04-26T15:24:35;6.23;;;4.40;;
5696;SDS011;2873;50.966;7.210;2023-04-26T15:27:01;7.03;;;4.18;;
5696;SDS011;2873;50.966;7.210;2023-04-26T15:29:29;7.03;;;4.90;;
5696;SDS011;2873;50.966;7.210;2023-04-26T15:31:58;9.38;;;6.10;;
5696;SDS011;2873;50.966;7.210;2023-04-26T15:34:24;11.13;;;6.63;;
5696;SDS011;2873;50.966;7.210;2023-04-26T15:36:51;7.55;;;4.50;;
5696;SDS011;2873;50.966;7.210;2023-04-26T15:39:17;7.82;;;4.25;;